createdAt,value
2023-01-12T00:03:01.860Z,10.90
2023-01-12T00:08:08.307Z,11.00
2023-01-12T00:13:10.428Z,11.00
2023-01-12T00:18:16.655Z,11.10
2023-01-12T00:23:20.312Z,11.20
2023-01-12T00:28:23.045Z,11.20
2023-01-12T00:33:25.122Z,11.40
2023-01-12T00:38:27.536Z,11.40
2023-01-12T00:43:48.347Z,11.50
2023-01-12T00:48:54.289Z,11.50
2023-01-12T00:53:56.904Z,11.50
2023-01-12T00:59:02.793Z,11.60
2023-01-12T01:04:05.045Z,11.70
2023-01-12T01:09:11.103Z,11.70
2023-01-12T01:14:13.321Z,11.70
2023-01-12T01:19:19.550Z,11.80
2023-01-12T01:24:22.094Z,11.80
2023-01-12T01:29:25.423Z,11.80
2023-01-12T01:34:33.490Z,11.90
2023-01-12T01:39:36.202Z,11.90
2023-01-12T01:44:49.335Z,11.90
2023-01-12T01:49:56.711Z,11.90
2023-01-12T01:55:07.378Z,11.90
2023-01-12T02:00:13.445Z,11.90
2023-01-12T02:05:23.466Z,11.80
2023-01-12T02:10:26.114Z,11.60
2023-01-12T02:15:54.431Z,11.40
2023-01-12T02:21:20.149Z,11.40
2023-01-12T02:26:46.010Z,11.30
2023-01-12T02:32:22.876Z,11.40
2023-01-12T02:38:00.772Z,11.40
2023-01-12T02:43:12.012Z,11.40
2023-01-12T02:48:51.743Z,11.40
2023-01-12T02:54:01.407Z,11.30
2023-01-12T02:59:18.221Z,11.20
2023-01-12T03:04:23.015Z,11.20
2023-01-12T03:09:30.251Z,11.20
2023-01-12T03:14:35.441Z,11.20
2023-01-12T03:19:40.338Z,11.20
2023-01-12T03:24:48.125Z,11.20
2023-01-12T03:30:01.702Z,11.10
2023-01-12T03:35:08.887Z,11.00
2023-01-12T03:40:22.178Z,11.00
2023-01-12T03:45:30.229Z,11.00
2023-01-12T03:50:41.131Z,11.00
2023-01-12T03:55:47.918Z,11.10
2023-01-12T04:00:50.404Z,11.20
2023-01-12T04:05:52.662Z,11.30
2023-01-12T04:10:55.066Z,11.40
2023-01-12T04:16:01.612Z,11.40
2023-01-12T04:21:05.369Z,11.50
2023-01-12T04:26:07.935Z,11.40
2023-01-12T04:31:10.159Z,11.50
2023-01-12T04:36:12.446Z,11.50
2023-01-12T04:41:15.758Z,11.40
2023-01-12T04:46:17.952Z,11.50
2023-01-12T04:51:20.595Z,11.50
2023-01-12T04:56:22.902Z,11.40
2023-01-12T05:01:25.445Z,11.40
2023-01-12T05:06:29.617Z,11.30
2023-01-12T05:11:31.888Z,11.30
2023-01-12T05:16:34.341Z,11.30
2023-01-12T05:21:42.885Z,11.30
2023-01-12T05:26:45.219Z,11.30
2023-01-12T05:31:47.673Z,11.30
2023-01-12T05:36:50.991Z,11.20
2023-01-12T05:42:13.540Z,11.30
2023-01-12T05:47:18.707Z,11.40
2023-01-12T05:52:23.281Z,11.40
2023-01-12T05:57:25.455Z,11.60
2023-01-12T06:02:28.791Z,11.60
2023-01-12T06:07:31.264Z,11.60
2023-01-12T06:12:53.241Z,11.60
2023-01-12T06:17:57.629Z,11.50
2023-01-12T06:23:07.613Z,11.50
2023-01-12T06:28:11.097Z,11.60
2023-01-12T06:33:14.778Z,11.80
2023-01-12T06:38:19.051Z,11.70
2023-01-12T06:43:25.347Z,11.60
2023-01-12T06:48:39.129Z,11.70
2023-01-12T06:53:41.772Z,11.70
2023-01-12T06:58:45.753Z,11.60
2023-01-12T07:03:47.984Z,11.60
2023-01-12T07:08:50.235Z,11.50
2023-01-12T07:13:52.494Z,11.50
2023-01-12T07:18:54.739Z,11.40
2023-01-12T07:23:57.390Z,11.40
2023-01-12T07:29:00.567Z,11.40
2023-01-12T07:34:02.850Z,11.40
2023-01-12T07:39:05.161Z,11.40
2023-01-12T07:44:07.611Z,11.50
2023-01-12T07:49:09.845Z,11.60
2023-01-12T07:54:14.789Z,11.60
2023-01-12T07:59:17.792Z,11.60
2023-01-12T08:04:24.093Z,11.60
2023-01-12T08:09:27.978Z,11.60
2023-01-12T08:14:39.481Z,11.60
2023-01-12T08:19:49.683Z,11.60
2023-01-12T08:25:00.665Z,11.60
2023-01-12T08:30:06.374Z,11.60
2023-01-12T08:35:09.913Z,11.60
2023-01-12T08:40:13.142Z,11.60
2023-01-12T08:45:16.517Z,11.50
2023-01-12T08:50:19.313Z,11.50
2023-01-12T08:55:21.610Z,11.50
2023-01-12T09:00:24.007Z,11.60
2023-01-12T09:05:27.252Z,11.60
2023-01-12T09:10:33.582Z,11.50
2023-01-12T09:15:35.726Z,11.60
2023-01-12T09:20:38.046Z,11.60
2023-01-12T09:25:41.720Z,11.60
2023-01-12T09:30:48.216Z,11.60
2023-01-12T09:35:50.349Z,11.70
2023-01-12T09:40:52.461Z,11.70
2023-01-12T09:46:13.194Z,11.80
2023-01-12T09:51:32.226Z,11.90
2023-01-12T09:56:40.652Z,12.00
2023-01-12T10:01:44.004Z,12.00
2023-01-12T10:06:46.904Z,12.00
2023-01-12T10:12:02.847Z,11.90
2023-01-12T10:17:16.965Z,11.80
2023-01-12T10:22:39.612Z,11.90
2023-01-12T10:27:45.083Z,11.90
2023-01-12T10:32:47.309Z,12.00
2023-01-12T10:37:53.485Z,12.00
2023-01-12T10:43:23.702Z,12.10
2023-01-12T10:48:27.367Z,12.00
2023-01-12T10:53:57.886Z,11.90
2023-01-12T10:59:07.616Z,12.00
2023-01-12T11:04:19.177Z,12.10
2023-01-12T11:09:30.223Z,12.20
2023-01-12T11:14:38.251Z,12.20
2023-01-12T11:19:44.348Z,12.30
2023-01-12T11:25:02.618Z,12.30
2023-01-12T11:30:26.056Z,12.30
2023-01-12T11:35:47.924Z,12.30
2023-01-12T11:40:50.413Z,12.30
2023-01-12T11:45:58.174Z,12.20
2023-01-12T11:51:03.198Z,12.10
2023-01-12T11:56:36.273Z,12.00
2023-01-12T12:02:16.499Z,12.00
2023-01-12T12:07:27.832Z,11.90
2023-01-12T12:12:39.356Z,11.80
2023-01-12T12:18:04.742Z,11.70
2023-01-12T12:23:30.024Z,11.60
2023-01-12T12:28:53.667Z,11.50
2023-01-12T12:34:13.944Z,11.50
2023-01-12T12:39:25.783Z,11.50
2023-01-12T12:45:00.023Z,11.50
2023-01-12T12:50:09.860Z,11.40
2023-01-12T12:55:13.135Z,11.40
2023-01-12T13:00:51.811Z,11.30
2023-01-12T13:06:25.206Z,11.30
2023-01-12T13:12:00.636Z,11.30
2023-01-12T13:17:18.538Z,11.30
2023-01-12T13:22:47.267Z,11.30
2023-01-12T13:27:56.784Z,11.30
2023-01-12T13:33:00.445Z,11.30
2023-01-12T13:38:21.103Z,11.30
2023-01-12T13:43:23.412Z,11.20
2023-01-12T13:48:27.769Z,11.20
2023-01-12T13:53:32.000Z,11.20
2023-01-12T13:58:41.038Z,11.30
2023-01-12T14:04:20.417Z,11.30
2023-01-12T14:10:08.852Z,11.30
2023-01-12T14:15:47.835Z,11.30
2023-01-12T14:20:56.906Z,11.40
2023-01-12T14:26:16.701Z,11.40
2023-01-12T14:31:44.709Z,11.50
2023-01-12T14:36:47.129Z,11.60
2023-01-12T14:42:10.963Z,11.60
2023-01-12T14:47:25.776Z,11.60
2023-01-12T14:52:32.835Z,11.50
2023-01-12T14:57:36.376Z,11.50
2023-01-12T15:02:41.030Z,11.40
2023-01-12T15:07:59.956Z,11.40
2023-01-12T15:13:28.758Z,11.50
2023-01-12T15:18:49.229Z,11.50
2023-01-12T15:24:09.573Z,11.50
2023-01-12T15:29:11.612Z,11.50
2023-01-12T15:34:13.704Z,11.50
2023-01-12T15:39:16.046Z,11.50
2023-01-12T15:44:22.780Z,11.50
2023-01-12T15:49:25.032Z,11.50
2023-01-12T15:54:27.173Z,11.50
2023-01-12T15:59:29.231Z,11.50
2023-01-12T16:04:46.586Z,11.50
2023-01-12T16:09:50.622Z,11.40
2023-01-12T16:14:52.809Z,11.50
2023-01-12T16:19:54.865Z,11.40
2023-01-12T16:24:57.280Z,11.40
2023-01-12T16:29:59.647Z,11.40
2023-01-12T16:35:08.094Z,11.40
2023-01-12T16:40:11.114Z,11.40
2023-01-12T16:45:13.881Z,11.30
2023-01-12T16:50:17.086Z,11.30
2023-01-12T16:55:19.197Z,11.30
2023-01-12T17:00:21.679Z,11.30
2023-01-12T17:05:24.343Z,11.30
2023-01-12T17:10:26.902Z,11.20
2023-01-12T17:15:29.749Z,11.30
2023-01-12T17:20:32.354Z,11.30
2023-01-12T17:25:36.184Z,11.30
2023-01-12T17:30:39.505Z,11.40
2023-01-12T17:35:41.784Z,11.30
2023-01-12T17:40:43.936Z,11.30
2023-01-12T17:45:47.507Z,11.40
2023-01-12T17:50:49.844Z,11.40
2023-01-12T17:55:53.157Z,11.20
2023-01-12T18:00:55.424Z,10.70
2023-01-12T18:06:04.417Z,10.50
2023-01-12T18:11:08.743Z,10.40
2023-01-12T18:16:12.909Z,10.30
2023-01-12T18:21:18.569Z,10.20
2023-01-12T18:26:25.562Z,10.10
2023-01-12T18:31:33.673Z,10.10
2023-01-12T18:36:38.944Z,10.00
2023-01-12T18:41:59.832Z,10.00
2023-01-12T18:47:22.327Z,10.00
2023-01-12T18:52:43.167Z,9.90
2023-01-12T18:57:45.297Z,9.80
2023-01-12T19:02:47.518Z,9.80
2023-01-12T19:08:03.841Z,9.80
2023-01-12T19:13:24.752Z,9.80
2023-01-12T19:18:27.446Z,9.80
2023-01-12T19:23:48.279Z,9.90
2023-01-12T19:28:50.345Z,9.90
2023-01-12T19:33:52.460Z,9.90
2023-01-12T19:38:54.655Z,9.90
2023-01-12T19:43:56.883Z,9.90
2023-01-12T19:48:59.069Z,10.00
2023-01-12T19:54:01.190Z,10.00
2023-01-12T19:59:03.802Z,10.00
2023-01-12T20:04:06.100Z,10.10
2023-01-12T20:09:08.196Z,10.10
2023-01-12T20:14:10.302Z,9.90
2023-01-12T20:19:13.059Z,9.90
2023-01-12T20:24:15.621Z,9.90
2023-01-12T20:29:17.839Z,9.90
2023-01-12T20:34:20.995Z,9.80
2023-01-12T20:39:24.156Z,9.80
2023-01-12T20:44:26.362Z,9.70
2023-01-12T20:49:28.536Z,9.80
2023-01-12T20:54:30.961Z,9.80
2023-01-12T20:59:33.158Z,9.70
2023-01-12T21:04:35.333Z,9.60
2023-01-12T21:09:37.427Z,9.60
2023-01-12T21:14:39.768Z,9.50
2023-01-12T21:19:42.371Z,9.40
2023-01-12T21:24:44.551Z,9.40
2023-01-12T21:29:47.878Z,9.40
2023-01-12T21:34:51.422Z,9.50
2023-01-12T21:39:53.788Z,9.50
2023-01-12T21:44:56.044Z,9.60
2023-01-12T21:49:58.460Z,9.60
2023-01-12T21:55:00.725Z,9.70
2023-01-12T22:00:03.721Z,9.70
2023-01-12T22:05:14.356Z,9.80
2023-01-12T22:10:20.515Z,9.70
2023-01-12T22:15:24.083Z,9.70
2023-01-12T22:20:27.854Z,9.70
2023-01-12T22:25:30.124Z,9.60
2023-01-12T22:30:32.565Z,9.60
2023-01-12T22:35:34.779Z,9.50
2023-01-12T22:40:37.065Z,9.50
2023-01-12T22:45:40.174Z,9.30
2023-01-12T22:50:42.734Z,9.20
2023-01-12T22:55:44.865Z,9.00
2023-01-12T23:00:48.723Z,8.90
2023-01-12T23:05:56.297Z,8.90
2023-01-12T23:11:08.108Z,8.90
2023-01-12T23:16:12.847Z,8.80
2023-01-12T23:21:26.548Z,8.80
2023-01-12T23:26:32.021Z,8.80
2023-01-12T23:31:34.934Z,8.80
2023-01-12T23:36:37.576Z,8.70
2023-01-12T23:41:40.183Z,8.70
2023-01-12T23:46:43.263Z,8.60
2023-01-12T23:51:46.716Z,8.60
2023-01-12T23:56:52.581Z,8.50
